Terminal Aerodrome Forecast
Issued by NWS

Home | Current Version | Previous Version | Text Only | Print | Product List | Glossary On
Versions: 1 2 3 4 5 6 7 8 9 10 11 12 13 14 15 16 17 18 19 20
000
FTUS43 KEAX 240500
TAFMKC
TAF
KMKC 240534Z 2406/2506 08015KT 5SM -RA VCTS OVC050CB
     FM241000 09014KT 5SM -RA BR OVC019
     FM241500 10013KT 5SM -DZ BR OVC018
     FM250000 28008KT P6SM SCT020=

USA.gov is the U.S. government's official web portal to all federal, state and local government web resources and services.